Plano's Hourly Summary for Saturday, April 15, 2017
Hour Temp
(f)
RH
(%)
Solar Rad.
(MJ/m2)
Rainfall
(in)
Wind
(mph)
4/15/2017 12:00 AM 70 57 0 0 2.44
4/15/2017 1:00 AM 70 61 0 0 3.25
4/15/2017 2:00 AM 68 64 0 0 3.46
4/15/2017 3:00 AM 67 70 0 0 3.46
4/15/2017 4:00 AM 66 75 0 0 3.24
4/15/2017 5:00 AM 65 80 0 0 2.53
4/15/2017 6:00 AM 65 81 0 0 4.48
4/15/2017 7:00 AM 65 81 0 0 2.84
4/15/2017 8:00 AM 65 79 0.15 0 2.58
4/15/2017 9:00 AM 67 74 0.5 0 3.87
4/15/2017 10:00 AM 69 68 1.11 0 5
4/15/2017 11:00 AM 71 63 1.81 0 4.8
4/15/2017 12:00 PM 74 58 2.58 0 5.83
4/15/2017 1:00 PM 76 54 2.94 0 5.83
4/15/2017 2:00 PM 77 53 1.99 0 5.61
4/15/2017 3:00 PM 76 55 1.4 0 4.81
4/15/2017 4:00 PM 76 54 1.26 0 5.34
4/15/2017 5:00 PM 77 54 0.99 0 4.93
4/15/2017 6:00 PM 77 53 1.15 0 4.92
4/15/2017 7:00 PM 77 54 0.67 0 5.32
4/15/2017 8:00 PM 75 55 0.2 0 4.51
4/15/2017 9:00 PM 74 58 0 0 3.07
4/15/2017 10:00 PM 73 60 0 0 2.86
4/15/2017 11:00 PM 72 64 0 0 2.77
Data Summary 71 63 16.75 0.00 4.07